sensor_id;sensor_type;location;lat;lon;timestamp;P1;durP1;ratioP1;P2;durP2;ratioP2
59336;SDS011;45115;52.002;4.686;2024-03-02T00:01:39;0.63;;;0.57;;
59336;SDS011;45115;52.002;4.686;2024-03-02T00:04:05;0.60;;;0.60;;
59336;SDS011;45115;52.002;4.686;2024-03-02T00:06:35;1.60;;;0.50;;
59336;SDS011;45115;52.002;4.686;2024-03-02T00:09:02;0.57;;;0.57;;
59336;SDS011;45115;52.002;4.686;2024-03-02T00:11:29;0.70;;;0.57;;
59336;SDS011;45115;52.002;4.686;2024-03-02T00:13:56;2.00;;;0.55;;
59336;SDS011;45115;52.002;4.686;2024-03-02T00:16:23;0.95;;;0.65;;
59336;SDS011;45115;52.002;4.686;2024-03-02T00:18:50;0.70;;;0.70;;
59336;SDS011;45115;52.002;4.686;2024-03-02T00:21:17;1.17;;;0.55;;
59336;SDS011;45115;52.002;4.686;2024-03-02T00:23:47;0.40;;;0.40;;
59336;SDS011;45115;52.002;4.686;2024-03-02T00:26:15;1.10;;;0.50;;
59336;SDS011;45115;52.002;4.686;2024-03-02T00:28:42;0.38;;;0.38;;
59336;SDS011;45115;52.002;4.686;2024-03-02T00:31:11;0.63;;;0.63;;
59336;SDS011;45115;52.002;4.686;2024-03-02T00:33:40;0.75;;;0.50;;
59336;SDS011;45115;52.002;4.686;2024-03-02T00:36:10;1.85;;;0.80;;
59336;SDS011;45115;52.002;4.686;2024-03-02T00:38:44;0.63;;;0.60;;
59336;SDS011;45115;52.002;4.686;2024-03-02T00:41:17;0.70;;;0.70;;
59336;SDS011;45115;52.002;4.686;2024-03-02T00:43:51;1.17;;;0.88;;
59336;SDS011;45115;52.002;4.686;2024-03-02T00:46:23;0.98;;;0.98;;
59336;SDS011;45115;52.002;4.686;2024-03-02T00:48:54;2.72;;;1.50;;
59336;SDS011;45115;52.002;4.686;2024-03-02T00:51:23;4.00;;;1.90;;
59336;SDS011;45115;52.002;4.686;2024-03-02T00:53:50;2.30;;;1.63;;
59336;SDS011;45115;52.002;4.686;2024-03-02T00:56:19;1.60;;;1.50;;
59336;SDS011;45115;52.002;4.686;2024-03-02T00:58:46;2.60;;;1.58;;
59336;SDS011;45115;52.002;4.686;2024-03-02T01:01:13;1.70;;;1.10;;
59336;SDS011;45115;52.002;4.686;2024-03-02T01:03:41;1.20;;;1.10;;
59336;SDS011;45115;52.002;4.686;2024-03-02T01:06:08;1.33;;;1.23;;
59336;SDS011;45115;52.002;4.686;2024-03-02T01:08:35;3.13;;;0.95;;
59336;SDS011;45115;52.002;4.686;2024-03-02T01:11:02;2.35;;;1.20;;
59336;SDS011;45115;52.002;4.686;2024-03-02T01:13:30;0.93;;;0.82;;
59336;SDS011;45115;52.002;4.686;2024-03-02T01:15:58;3.92;;;1.38;;
59336;SDS011;45115;52.002;4.686;2024-03-02T01:18:25;1.45;;;0.82;;
59336;SDS011;45115;52.002;4.686;2024-03-02T01:20:51;3.80;;;1.20;;
59336;SDS011;45115;52.002;4.686;2024-03-02T01:23:21;4.03;;;1.50;;
59336;SDS011;45115;52.002;4.686;2024-03-02T01:25:47;3.45;;;2.10;;
59336;SDS011;45115;52.002;4.686;2024-03-02T01:28:14;5.13;;;2.40;;
59336;SDS011;45115;52.002;4.686;2024-03-02T01:30:42;3.88;;;2.65;;
59336;SDS011;45115;52.002;4.686;2024-03-02T01:33:09;4.65;;;2.80;;
59336;SDS011;45115;52.002;4.686;2024-03-02T01:35:35;2.88;;;2.58;;
59336;SDS011;45115;52.002;4.686;2024-03-02T01:38:02;3.88;;;2.30;;
59336;SDS011;45115;52.002;4.686;2024-03-02T01:40:31;2.58;;;1.88;;
59336;SDS011;45115;52.002;4.686;2024-03-02T01:42:58;2.17;;;1.85;;
59336;SDS011;45115;52.002;4.686;2024-03-02T01:45:25;3.40;;;1.95;;
59336;SDS011;45115;52.002;4.686;2024-03-02T01:47:53;4.00;;;2.20;;
59336;SDS011;45115;52.002;4.686;2024-03-02T01:50:26;3.92;;;2.47;;
59336;SDS011;45115;52.002;4.686;2024-03-02T01:52:54;4.93;;;2.80;;
59336;SDS011;45115;52.002;4.686;2024-03-02T01:55:21;3.78;;;2.45;;
59336;SDS011;45115;52.002;4.686;2024-03-02T01:57:48;3.17;;;2.30;;
59336;SDS011;45115;52.002;4.686;2024-03-02T02:00:16;5.38;;;2.55;;
59336;SDS011;45115;52.002;4.686;2024-03-02T02:02:43;2.65;;;1.77;;
59336;SDS011;45115;52.002;4.686;2024-03-02T02:05:11;2.95;;;2.10;;
59336;SDS011;45115;52.002;4.686;2024-03-02T02:07:38;2.55;;;1.77;;
59336;SDS011;45115;52.002;4.686;2024-03-02T02:10:05;2.13;;;1.58;;
59336;SDS011;45115;52.002;4.686;2024-03-02T02:12:32;1.80;;;1.60;;
59336;SDS011;45115;52.002;4.686;2024-03-02T02:14:59;3.45;;;1.58;;
59336;SDS011;45115;52.002;4.686;2024-03-02T02:17:26;2.13;;;1.50;;
59336;SDS011;45115;52.002;4.686;2024-03-02T02:19:53;1.90;;;1.30;;
59336;SDS011;45115;52.002;4.686;2024-03-02T02:22:21;2.60;;;1.25;;
59336;SDS011;45115;52.002;4.686;2024-03-02T02:24:48;1.85;;;1.40;;
59336;SDS011;45115;52.002;4.686;2024-03-02T02:27:14;1.35;;;1.20;;
59336;SDS011;45115;52.002;4.686;2024-03-02T02:29:41;1.55;;;1.38;;
59336;SDS011;45115;52.002;4.686;2024-03-02T02:32:08;1.77;;;1.60;;
59336;SDS011;45115;52.002;4.686;2024-03-02T02:34:35;2.50;;;1.48;;
59336;SDS011;45115;52.002;4.686;2024-03-02T02:37:01;1.55;;;1.15;;
59336;SDS011;45115;52.002;4.686;2024-03-02T02:39:29;1.67;;;1.42;;
59336;SDS011;45115;52.002;4.686;2024-03-02T02:41:56;1.52;;;1.38;;
59336;SDS011;45115;52.002;4.686;2024-03-02T02:44:23;2.13;;;1.40;;
59336;SDS011;45115;52.002;4.686;2024-03-02T02:46:50;2.22;;;1.35;;
59336;SDS011;45115;52.002;4.686;2024-03-02T02:49:17;2.35;;;1.60;;
59336;SDS011;45115;52.002;4.686;2024-03-02T02:51:43;1.23;;;1.15;;
59336;SDS011;45115;52.002;4.686;2024-03-02T02:54:10;1.83;;;1.27;;
59336;SDS011;45115;52.002;4.686;2024-03-02T02:56:38;1.73;;;1.50;;
59336;SDS011;45115;52.002;4.686;2024-03-02T02:59:05;2.97;;;1.52;;
59336;SDS011;45115;52.002;4.686;2024-03-02T03:01:31;2.53;;;1.85;;
59336;SDS011;45115;52.002;4.686;2024-03-02T03:03:58;3.10;;;1.70;;
59336;SDS011;45115;52.002;4.686;2024-03-02T03:06:25;2.00;;;1.70;;
59336;SDS011;45115;52.002;4.686;2024-03-02T03:08:51;2.70;;;1.67;;
59336;SDS011;45115;52.002;4.686;2024-03-02T03:11:18;1.67;;;1.55;;
59336;SDS011;45115;52.002;4.686;2024-03-02T03:13:46;2.08;;;1.83;;
59336;SDS011;45115;52.002;4.686;2024-03-02T03:16:13;3.00;;;1.80;;
59336;SDS011;45115;52.002;4.686;2024-03-02T03:18:40;2.25;;;1.60;;
59336;SDS011;45115;52.002;4.686;2024-03-02T03:21:07;2.13;;;1.77;;
59336;SDS011;45115;52.002;4.686;2024-03-02T03:23:33;2.90;;;1.75;;
59336;SDS011;45115;52.002;4.686;2024-03-02T03:26:00;2.38;;;1.40;;
59336;SDS011;45115;52.002;4.686;2024-03-02T03:28:27;3.33;;;1.83;;
59336;SDS011;45115;52.002;4.686;2024-03-02T03:30:55;2.75;;;1.70;;
59336;SDS011;45115;52.002;4.686;2024-03-02T03:33:21;3.35;;;1.70;;
59336;SDS011;45115;52.002;4.686;2024-03-02T03:35:48;2.22;;;1.50;;
59336;SDS011;45115;52.002;4.686;2024-03-02T03:38:15;2.92;;;1.50;;
59336;SDS011;45115;52.002;4.686;2024-03-02T03:40:41;2.22;;;1.50;;
59336;SDS011;45115;52.002;4.686;2024-03-02T03:43:09;1.90;;;1.50;;
59336;SDS011;45115;52.002;4.686;2024-03-02T03:45:35;2.70;;;1.85;;
59336;SDS011;45115;52.002;4.686;2024-03-02T03:48:03;2.30;;;1.45;;
59336;SDS011;45115;52.002;4.686;2024-03-02T03:50:31;2.03;;;1.40;;
59336;SDS011;45115;52.002;4.686;2024-03-02T03:52:57;2.67;;;1.60;;
59336;SDS011;45115;52.002;4.686;2024-03-02T03:55:24;3.08;;;1.80;;
59336;SDS011;45115;52.002;4.686;2024-03-02T03:57:51;1.95;;;1.75;;
59336;SDS011;45115;52.002;4.686;2024-03-02T04:00:18;3.38;;;1.50;;
59336;SDS011;45115;52.002;4.686;2024-03-02T04:02:45;1.95;;;1.77;;
59336;SDS011;45115;52.002;4.686;2024-03-02T04:05:13;2.00;;;1.83;;
59336;SDS011;45115;52.002;4.686;2024-03-02T04:07:39;3.05;;;1.60;;
59336;SDS011;45115;52.002;4.686;2024-03-02T04:10:08;1.70;;;1.60;;
59336;SDS011;45115;52.002;4.686;2024-03-02T04:12:35;2.90;;;1.67;;
59336;SDS011;45115;52.002;4.686;2024-03-02T04:15:03;1.95;;;1.58;;
59336;SDS011;45115;52.002;4.686;2024-03-02T04:17:31;2.42;;;1.50;;
59336;SDS011;45115;52.002;4.686;2024-03-02T04:20:00;4.15;;;1.80;;
59336;SDS011;45115;52.002;4.686;2024-03-02T04:22:32;3.40;;;1.60;;
59336;SDS011;45115;52.002;4.686;2024-03-02T04:24:59;4.45;;;1.45;;
59336;SDS011;45115;52.002;4.686;2024-03-02T04:27:26;1.90;;;1.58;;
59336;SDS011;45115;52.002;4.686;2024-03-02T04:29:52;3.65;;;1.90;;
59336;SDS011;45115;52.002;4.686;2024-03-02T04:32:19;2.63;;;1.45;;
59336;SDS011;45115;52.002;4.686;2024-03-02T04:34:46;1.35;;;1.25;;
59336;SDS011;45115;52.002;4.686;2024-03-02T04:37:12;1.45;;;1.35;;
59336;SDS011;45115;52.002;4.686;2024-03-02T04:39:41;1.88;;;1.55;;
59336;SDS011;45115;52.002;4.686;2024-03-02T04:42:08;3.15;;;1.50;;
59336;SDS011;45115;52.002;4.686;2024-03-02T04:44:34;1.50;;;1.40;;
59336;SDS011;45115;52.002;4.686;2024-03-02T04:47:02;2.55;;;1.65;;
59336;SDS011;45115;52.002;4.686;2024-03-02T04:49:29;1.63;;;1.38;;
59336;SDS011;45115;52.002;4.686;2024-03-02T04:51:56;3.72;;;1.30;;
59336;SDS011;45115;52.002;4.686;2024-03-02T04:54:23;3.28;;;1.80;;
59336;SDS011;45115;52.002;4.686;2024-03-02T04:56:51;3.45;;;1.58;;
59336;SDS011;45115;52.002;4.686;2024-03-02T04:59:17;2.25;;;1.50;;
59336;SDS011;45115;52.002;4.686;2024-03-02T05:01:43;5.90;;;1.80;;
59336;SDS011;45115;52.002;4.686;2024-03-02T05:04:10;1.83;;;1.60;;
59336;SDS011;45115;52.002;4.686;2024-03-02T05:06:41;3.05;;;1.70;;
59336;SDS011;45115;52.002;4.686;2024-03-02T05:09:07;3.10;;;1.85;;
59336;SDS011;45115;52.002;4.686;2024-03-02T05:11:34;2.00;;;1.60;;
59336;SDS011;45115;52.002;4.686;2024-03-02T05:14:38;1.80;;;1.52;;
59336;SDS011;45115;52.002;4.686;2024-03-02T05:17:04;1.60;;;1.50;;
59336;SDS011;45115;52.002;4.686;2024-03-02T05:19:31;2.50;;;1.30;;
59336;SDS011;45115;52.002;4.686;2024-03-02T05:21:58;2.67;;;1.48;;
59336;SDS011;45115;52.002;4.686;2024-03-02T05:24:24;1.92;;;1.45;;
59336;SDS011;45115;52.002;4.686;2024-03-02T05:26:53;2.22;;;1.15;;
59336;SDS011;45115;52.002;4.686;2024-03-02T05:29:20;3.35;;;1.40;;
59336;SDS011;45115;52.002;4.686;2024-03-02T05:31:48;6.43;;;2.30;;
59336;SDS011;45115;52.002;4.686;2024-03-02T05:36:44;1.38;;;1.15;;
59336;SDS011;45115;52.002;4.686;2024-03-02T05:39:11;3.30;;;1.60;;
59336;SDS011;45115;52.002;4.686;2024-03-02T05:41:38;3.78;;;1.63;;
59336;SDS011;45115;52.002;4.686;2024-03-02T05:44:04;1.67;;;1.58;;
59336;SDS011;45115;52.002;4.686;2024-03-02T05:46:31;2.25;;;1.40;;
59336;SDS011;45115;52.002;4.686;2024-03-02T05:48:59;2.00;;;1.30;;
59336;SDS011;45115;52.002;4.686;2024-03-02T05:51:26;1.70;;;1.30;;
59336;SDS011;45115;52.002;4.686;2024-03-02T05:53:53;3.40;;;1.40;;
59336;SDS011;45115;52.002;4.686;2024-03-02T05:56:20;2.55;;;1.40;;
59336;SDS011;45115;52.002;4.686;2024-03-02T05:58:47;3.05;;;1.38;;
59336;SDS011;45115;52.002;4.686;2024-03-02T06:01:25;0.95;;;0.95;;
59336;SDS011;45115;52.002;4.686;2024-03-02T06:03:54;1.40;;;1.30;;
59336;SDS011;45115;52.002;4.686;2024-03-02T06:06:23;2.42;;;1.20;;
59336;SDS011;45115;52.002;4.686;2024-03-02T06:08:49;2.20;;;1.48;;
59336;SDS011;45115;52.002;4.686;2024-03-02T06:11:16;1.02;;;0.90;;
59336;SDS011;45115;52.002;4.686;2024-03-02T06:13:43;1.23;;;1.00;;
59336;SDS011;45115;52.002;4.686;2024-03-02T06:16:13;2.05;;;1.30;;
59336;SDS011;45115;52.002;4.686;2024-03-02T06:18:39;1.77;;;1.35;;
59336;SDS011;45115;52.002;4.686;2024-03-02T06:21:06;2.55;;;1.67;;
59336;SDS011;45115;52.002;4.686;2024-03-02T06:23:34;3.60;;;1.38;;
59336;SDS011;45115;52.002;4.686;2024-03-02T06:26:01;1.95;;;1.10;;
59336;SDS011;45115;52.002;4.686;2024-03-02T06:28:28;3.88;;;1.58;;
59336;SDS011;45115;52.002;4.686;2024-03-02T06:30:55;5.28;;;1.77;;
59336;SDS011;45115;52.002;4.686;2024-03-02T06:33:22;2.83;;;1.35;;
59336;SDS011;45115;52.002;4.686;2024-03-02T06:36:01;1.73;;;1.33;;
59336;SDS011;45115;52.002;4.686;2024-03-02T06:38:28;4.22;;;1.23;;
59336;SDS011;45115;52.002;4.686;2024-03-02T06:40:58;2.65;;;1.35;;
59336;SDS011;45115;52.002;4.686;2024-03-02T06:43:25;4.97;;;1.42;;
59336;SDS011;45115;52.002;4.686;2024-03-02T06:45:52;1.92;;;1.33;;
59336;SDS011;45115;52.002;4.686;2024-03-02T06:48:23;1.52;;;1.20;;
59336;SDS011;45115;52.002;4.686;2024-03-02T06:51:10;1.77;;;1.20;;
59336;SDS011;45115;52.002;4.686;2024-03-02T06:53:37;2.25;;;1.48;;
59336;SDS011;45115;52.002;4.686;2024-03-02T06:56:06;3.80;;;1.48;;
59336;SDS011;45115;52.002;4.686;2024-03-02T06:58:33;5.82;;;1.63;;
59336;SDS011;45115;52.002;4.686;2024-03-02T07:01:00;1.65;;;1.25;;
59336;SDS011;45115;52.002;4.686;2024-03-02T07:03:27;1.70;;;1.50;;
59336;SDS011;45115;52.002;4.686;2024-03-02T07:05:53;1.30;;;1.00;;
59336;SDS011;45115;52.002;4.686;2024-03-02T07:08:20;1.40;;;1.30;;
59336;SDS011;45115;52.002;4.686;2024-03-02T07:10:47;3.38;;;1.38;;
59336;SDS011;45115;52.002;4.686;2024-03-02T07:13:15;2.75;;;1.10;;
59336;SDS011;45115;52.002;4.686;2024-03-02T07:15:42;3.45;;;1.38;;
59336;SDS011;45115;52.002;4.686;2024-03-02T07:18:36;4.57;;;1.30;;
59336;SDS011;45115;52.002;4.686;2024-03-02T07:21:06;2.85;;;1.60;;
59336;SDS011;45115;52.002;4.686;2024-03-02T07:23:33;1.83;;;1.30;;
59336;SDS011;45115;52.002;4.686;2024-03-02T07:26:00;2.83;;;1.45;;
59336;SDS011;45115;52.002;4.686;2024-03-02T07:28:28;3.58;;;1.30;;
59336;SDS011;45115;52.002;4.686;2024-03-02T07:30:58;3.60;;;1.63;;
59336;SDS011;45115;52.002;4.686;2024-03-02T07:33:26;3.33;;;1.70;;
59336;SDS011;45115;52.002;4.686;2024-03-02T07:35:53;3.35;;;1.45;;
59336;SDS011;45115;52.002;4.686;2024-03-02T07:38:20;2.08;;;1.15;;
59336;SDS011;45115;52.002;4.686;2024-03-02T07:40:47;2.58;;;1.33;;
59336;SDS011;45115;52.002;4.686;2024-03-02T07:43:15;3.53;;;1.17;;
59336;SDS011;45115;52.002;4.686;2024-03-02T07:45:44;3.60;;;1.27;;
59336;SDS011;45115;52.002;4.686;2024-03-02T07:48:11;1.83;;;1.38;;
59336;SDS011;45115;52.002;4.686;2024-03-02T07:50:39;3.78;;;1.42;;
59336;SDS011;45115;52.002;4.686;2024-03-02T07:53:06;2.83;;;1.02;;
59336;SDS011;45115;52.002;4.686;2024-03-02T07:55:33;4.22;;;1.70;;
59336;SDS011;45115;52.002;4.686;2024-03-02T07:58:00;5.40;;;2.00;;
59336;SDS011;45115;52.002;4.686;2024-03-02T08:00:27;1.92;;;1.42;;
59336;SDS011;45115;52.002;4.686;2024-03-02T08:02:59;5.30;;;1.77;;
59336;SDS011;45115;52.002;4.686;2024-03-02T08:05:29;5.75;;;2.17;;
59336;SDS011;45115;52.002;4.686;2024-03-02T08:07:56;3.35;;;1.30;;
59336;SDS011;45115;52.002;4.686;2024-03-02T08:10:23;3.50;;;1.52;;
59336;SDS011;45115;52.002;4.686;2024-03-02T08:12:49;5.70;;;2.35;;
59336;SDS011;45115;52.002;4.686;2024-03-02T08:15:16;2.83;;;1.20;;
59336;SDS011;45115;52.002;4.686;2024-03-02T08:17:43;2.55;;;1.02;;
59336;SDS011;45115;52.002;4.686;2024-03-02T08:20:15;3.05;;;1.17;;
59336;SDS011;45115;52.002;4.686;2024-03-02T08:22:41;4.18;;;1.75;;
59336;SDS011;45115;52.002;4.686;2024-03-02T08:25:08;1.67;;;1.13;;
59336;SDS011;45115;52.002;4.686;2024-03-02T08:27:36;3.22;;;1.45;;
59336;SDS011;45115;52.002;4.686;2024-03-02T08:30:03;3.20;;;1.92;;
59336;SDS011;45115;52.002;4.686;2024-03-02T08:32:31;1.30;;;1.20;;
59336;SDS011;45115;52.002;4.686;2024-03-02T08:34:58;3.20;;;1.30;;
59336;SDS011;45115;52.002;4.686;2024-03-02T08:37:26;5.30;;;1.38;;
59336;SDS011;45115;52.002;4.686;2024-03-02T08:39:53;5.03;;;1.23;;
59336;SDS011;45115;52.002;4.686;2024-03-02T08:42:20;5.80;;;1.73;;
59336;SDS011;45115;52.002;4.686;2024-03-02T08:44:48;4.20;;;1.38;;
59336;SDS011;45115;52.002;4.686;2024-03-02T08:47:15;4.50;;;1.63;;
59336;SDS011;45115;52.002;4.686;2024-03-02T08:49:42;2.42;;;1.50;;
59336;SDS011;45115;52.002;4.686;2024-03-02T08:52:09;2.60;;;1.35;;
59336;SDS011;45115;52.002;4.686;2024-03-02T08:54:37;3.55;;;1.42;;
59336;SDS011;45115;52.002;4.686;2024-03-02T08:57:04;3.22;;;1.30;;
59336;SDS011;45115;52.002;4.686;2024-03-02T08:59:31;2.00;;;1.10;;
59336;SDS011;45115;52.002;4.686;2024-03-02T09:01:58;4.57;;;1.15;;
59336;SDS011;45115;52.002;4.686;2024-03-02T09:04:25;2.22;;;1.40;;
59336;SDS011;45115;52.002;4.686;2024-03-02T09:06:52;3.30;;;1.35;;
59336;SDS011;45115;52.002;4.686;2024-03-02T09:09:20;3.95;;;1.50;;
59336;SDS011;45115;52.002;4.686;2024-03-02T09:11:48;6.18;;;1.63;;
59336;SDS011;45115;52.002;4.686;2024-03-02T09:14:15;3.63;;;1.25;;
59336;SDS011;45115;52.002;4.686;2024-03-02T09:16:42;3.25;;;1.20;;
59336;SDS011;45115;52.002;4.686;2024-03-02T09:19:08;4.50;;;1.20;;
59336;SDS011;45115;52.002;4.686;2024-03-02T09:21:35;4.88;;;1.52;;
59336;SDS011;45115;52.002;4.686;2024-03-02T09:24:02;3.25;;;1.85;;
59336;SDS011;45115;52.002;4.686;2024-03-02T09:26:31;5.85;;;1.90;;
59336;SDS011;45115;52.002;4.686;2024-03-02T09:29:00;4.97;;;1.60;;
59336;SDS011;45115;52.002;4.686;2024-03-02T09:31:26;3.15;;;1.38;;
59336;SDS011;45115;52.002;4.686;2024-03-02T09:33:53;2.67;;;1.52;;
59336;SDS011;45115;52.002;4.686;2024-03-02T09:36:21;3.30;;;1.60;;
59336;SDS011;45115;52.002;4.686;2024-03-02T09:38:59;2.10;;;1.27;;
59336;SDS011;45115;52.002;4.686;2024-03-02T09:41:25;1.45;;;1.35;;
59336;SDS011;45115;52.002;4.686;2024-03-02T09:43:53;4.35;;;1.40;;
59336;SDS011;45115;52.002;4.686;2024-03-02T09:46:22;6.30;;;1.70;;
59336;SDS011;45115;52.002;4.686;2024-03-02T09:48:49;4.10;;;1.33;;
59336;SDS011;45115;52.002;4.686;2024-03-02T09:51:16;2.65;;;1.35;;
59336;SDS011;45115;52.002;4.686;2024-03-02T09:53:44;9.63;;;1.73;;
59336;SDS011;45115;52.002;4.686;2024-03-02T09:56:13;3.67;;;1.58;;
59336;SDS011;45115;52.002;4.686;2024-03-02T09:58:41;4.82;;;1.00;;
59336;SDS011;45115;52.002;4.686;2024-03-02T10:01:09;5.00;;;1.63;;
59336;SDS011;45115;52.002;4.686;2024-03-02T10:03:37;4.57;;;1.48;;
59336;SDS011;45115;52.002;4.686;2024-03-02T10:06:20;3.80;;;1.40;;
59336;SDS011;45115;52.002;4.686;2024-03-02T10:08:47;2.50;;;1.17;;
59336;SDS011;45115;52.002;4.686;2024-03-02T10:11:25;4.28;;;1.42;;
59336;SDS011;45115;52.002;4.686;2024-03-02T10:14:03;2.58;;;1.50;;
59336;SDS011;45115;52.002;4.686;2024-03-02T10:16:33;3.45;;;1.38;;
59336;SDS011;45115;52.002;4.686;2024-03-02T10:19:14;2.67;;;1.23;;
59336;SDS011;45115;52.002;4.686;2024-03-02T10:21:42;3.63;;;1.27;;
59336;SDS011;45115;52.002;4.686;2024-03-02T10:24:08;4.68;;;1.63;;
59336;SDS011;45115;52.002;4.686;2024-03-02T10:26:35;4.88;;;1.98;;
59336;SDS011;45115;52.002;4.686;2024-03-02T10:29:02;5.03;;;1.63;;
59336;SDS011;45115;52.002;4.686;2024-03-02T10:31:29;7.35;;;1.50;;
59336;SDS011;45115;52.002;4.686;2024-03-02T10:33:57;3.83;;;1.88;;
59336;SDS011;45115;52.002;4.686;2024-03-02T10:36:26;3.00;;;1.10;;
59336;SDS011;45115;52.002;4.686;2024-03-02T10:38:53;4.95;;;1.40;;
59336;SDS011;45115;52.002;4.686;2024-03-02T10:41:21;2.85;;;1.50;;
59336;SDS011;45115;52.002;4.686;2024-03-02T10:43:51;5.13;;;1.58;;
59336;SDS011;45115;52.002;4.686;2024-03-02T10:46:24;4.80;;;1.70;;
59336;SDS011;45115;52.002;4.686;2024-03-02T10:48:54;5.00;;;1.50;;
59336;SDS011;45115;52.002;4.686;2024-03-02T10:51:21;3.80;;;1.45;;
59336;SDS011;45115;52.002;4.686;2024-03-02T10:53:49;4.57;;;1.45;;
59336;SDS011;45115;52.002;4.686;2024-03-02T10:56:18;3.17;;;1.23;;
59336;SDS011;45115;52.002;4.686;2024-03-02T10:58:50;2.05;;;1.30;;
59336;SDS011;45115;52.002;4.686;2024-03-02T11:03:48;3.40;;;1.38;;
59336;SDS011;45115;52.002;4.686;2024-03-02T11:06:15;4.97;;;2.00;;
59336;SDS011;45115;52.002;4.686;2024-03-02T11:08:43;4.13;;;1.35;;
59336;SDS011;45115;52.002;4.686;2024-03-02T11:11:15;3.20;;;0.90;;
59336;SDS011;45115;52.002;4.686;2024-03-02T11:13:46;7.28;;;1.30;;
59336;SDS011;45115;52.002;4.686;2024-03-02T11:16:16;2.63;;;1.48;;
59336;SDS011;45115;52.002;4.686;2024-03-02T11:18:55;3.40;;;1.33;;
59336;SDS011;45115;52.002;4.686;2024-03-02T11:21:24;4.10;;;1.30;;
59336;SDS011;45115;52.002;4.686;2024-03-02T11:23:51;5.97;;;1.30;;
59336;SDS011;45115;52.002;4.686;2024-03-02T11:26:19;5.13;;;1.65;;
59336;SDS011;45115;52.002;4.686;2024-03-02T11:28:47;3.03;;;1.30;;
59336;SDS011;45115;52.002;4.686;2024-03-02T11:31:14;4.50;;;1.60;;
59336;SDS011;45115;52.002;4.686;2024-03-02T11:33:41;2.45;;;1.00;;
59336;SDS011;45115;52.002;4.686;2024-03-02T11:36:08;4.40;;;1.40;;
59336;SDS011;45115;52.002;4.686;2024-03-02T11:38:35;5.25;;;1.50;;
59336;SDS011;45115;52.002;4.686;2024-03-02T11:41:02;3.25;;;1.85;;
59336;SDS011;45115;52.002;4.686;2024-03-02T11:43:37;6.57;;;1.60;;
59336;SDS011;45115;52.002;4.686;2024-03-02T11:46:05;3.65;;;1.25;;
59336;SDS011;45115;52.002;4.686;2024-03-02T11:48:34;5.55;;;1.30;;
59336;SDS011;45115;52.002;4.686;2024-03-02T11:51:02;4.68;;;1.55;;
59336;SDS011;45115;52.002;4.686;2024-03-02T11:53:29;2.03;;;1.00;;
59336;SDS011;45115;52.002;4.686;2024-03-02T11:55:57;5.03;;;1.40;;
59336;SDS011;45115;52.002;4.686;2024-03-02T11:58:24;3.83;;;1.42;;
59336;SDS011;45115;52.002;4.686;2024-03-02T12:00:53;3.38;;;1.20;;
59336;SDS011;45115;52.002;4.686;2024-03-02T12:03:21;5.95;;;2.08;;
59336;SDS011;45115;52.002;4.686;2024-03-02T12:05:49;5.88;;;2.35;;
59336;SDS011;45115;52.002;4.686;2024-03-02T12:08:16;3.97;;;1.60;;
59336;SDS011;45115;52.002;4.686;2024-03-02T12:10:43;3.08;;;1.30;;
59336;SDS011;45115;52.002;4.686;2024-03-02T12:13:21;3.42;;;1.40;;
59336;SDS011;45115;52.002;4.686;2024-03-02T12:15:48;3.20;;;1.30;;
59336;SDS011;45115;52.002;4.686;2024-03-02T12:18:21;3.15;;;1.30;;
59336;SDS011;45115;52.002;4.686;2024-03-02T12:20:48;3.78;;;1.20;;
59336;SDS011;45115;52.002;4.686;2024-03-02T12:23:17;2.75;;;1.20;;
59336;SDS011;45115;52.002;4.686;2024-03-02T12:25:44;5.05;;;1.42;;
59336;SDS011;45115;52.002;4.686;2024-03-02T12:28:11;2.47;;;1.40;;
59336;SDS011;45115;52.002;4.686;2024-03-02T12:30:38;3.63;;;1.38;;
59336;SDS011;45115;52.002;4.686;2024-03-02T12:33:06;4.32;;;1.40;;
59336;SDS011;45115;52.002;4.686;2024-03-02T12:35:33;3.70;;;1.90;;
59336;SDS011;45115;52.002;4.686;2024-03-02T12:38:00;3.97;;;1.35;;
59336;SDS011;45115;52.002;4.686;2024-03-02T12:40:26;5.72;;;1.88;;
59336;SDS011;45115;52.002;4.686;2024-03-02T12:42:53;5.85;;;1.42;;
59336;SDS011;45115;52.002;4.686;2024-03-02T12:45:20;4.35;;;1.35;;
59336;SDS011;45115;52.002;4.686;2024-03-02T12:47:48;8.05;;;1.67;;
59336;SDS011;45115;52.002;4.686;2024-03-02T12:50:17;7.53;;;1.67;;
59336;SDS011;45115;52.002;4.686;2024-03-02T12:52:50;6.43;;;1.70;;
59336;SDS011;45115;52.002;4.686;2024-03-02T12:55:17;2.75;;;1.00;;
59336;SDS011;45115;52.002;4.686;2024-03-02T12:57:46;6.97;;;1.83;;
59336;SDS011;45115;52.002;4.686;2024-03-02T13:00:13;9.50;;;1.63;;
59336;SDS011;45115;52.002;4.686;2024-03-02T13:02:40;5.95;;;1.40;;
59336;SDS011;45115;52.002;4.686;2024-03-02T13:05:08;6.28;;;1.20;;
59336;SDS011;45115;52.002;4.686;2024-03-02T13:07:37;3.38;;;1.00;;
59336;SDS011;45115;52.002;4.686;2024-03-02T13:10:04;4.10;;;1.40;;
59336;SDS011;45115;52.002;4.686;2024-03-02T13:12:32;2.38;;;1.20;;
59336;SDS011;45115;52.002;4.686;2024-03-02T13:14:59;3.45;;;1.25;;
59336;SDS011;45115;52.002;4.686;2024-03-02T13:17:27;7.10;;;1.58;;
59336;SDS011;45115;52.002;4.686;2024-03-02T13:19:55;3.17;;;1.20;;
59336;SDS011;45115;52.002;4.686;2024-03-02T13:22:22;3.70;;;1.23;;
59336;SDS011;45115;52.002;4.686;2024-03-02T13:24:51;2.55;;;0.90;;
59336;SDS011;45115;52.002;4.686;2024-03-02T13:27:19;1.93;;;0.97;;
59336;SDS011;45115;52.002;4.686;2024-03-02T13:29:46;2.47;;;1.08;;
59336;SDS011;45115;52.002;4.686;2024-03-02T13:32:13;3.97;;;1.23;;
59336;SDS011;45115;52.002;4.686;2024-03-02T13:34:40;4.40;;;1.50;;
59336;SDS011;45115;52.002;4.686;2024-03-02T13:37:07;3.05;;;1.40;;
59336;SDS011;45115;52.002;4.686;2024-03-02T13:39:34;4.65;;;1.33;;
59336;SDS011;45115;52.002;4.686;2024-03-02T13:42:06;5.15;;;1.50;;
59336;SDS011;45115;52.002;4.686;2024-03-02T13:44:33;2.63;;;1.10;;
59336;SDS011;45115;52.002;4.686;2024-03-02T13:47:00;4.22;;;1.30;;
59336;SDS011;45115;52.002;4.686;2024-03-02T13:49:27;3.80;;;1.50;;
59336;SDS011;45115;52.002;4.686;2024-03-02T13:51:58;2.33;;;1.33;;
59336;SDS011;45115;52.002;4.686;2024-03-02T13:54:28;4.80;;;1.70;;
59336;SDS011;45115;52.002;4.686;2024-03-02T13:56:55;2.40;;;1.25;;
59336;SDS011;45115;52.002;4.686;2024-03-02T13:59:24;3.15;;;1.20;;
59336;SDS011;45115;52.002;4.686;2024-03-02T14:01:51;5.40;;;1.52;;
59336;SDS011;45115;52.002;4.686;2024-03-02T14:04:18;5.50;;;1.23;;
59336;SDS011;45115;52.002;4.686;2024-03-02T14:06:51;5.35;;;1.38;;
59336;SDS011;45115;52.002;4.686;2024-03-02T14:09:18;4.28;;;1.70;;
59336;SDS011;45115;52.002;4.686;2024-03-02T14:11:45;4.70;;;1.20;;
59336;SDS011;45115;52.002;4.686;2024-03-02T14:14:12;3.22;;;1.15;;
59336;SDS011;45115;52.002;4.686;2024-03-02T14:16:40;2.33;;;1.23;;
59336;SDS011;45115;52.002;4.686;2024-03-02T14:19:07;3.70;;;1.23;;
59336;SDS011;45115;52.002;4.686;2024-03-02T14:21:34;2.50;;;1.52;;
59336;SDS011;45115;52.002;4.686;2024-03-02T14:24:01;2.95;;;1.30;;
59336;SDS011;45115;52.002;4.686;2024-03-02T14:26:28;2.85;;;1.30;;
59336;SDS011;45115;52.002;4.686;2024-03-02T14:28:55;1.95;;;1.10;;
59336;SDS011;45115;52.002;4.686;2024-03-02T14:31:22;2.65;;;1.30;;
59336;SDS011;45115;52.002;4.686;2024-03-02T14:33:51;4.05;;;1.48;;
59336;SDS011;45115;52.002;4.686;2024-03-02T14:36:18;2.03;;;1.30;;
59336;SDS011;45115;52.002;4.686;2024-03-02T14:38:45;2.83;;;1.23;;
59336;SDS011;45115;52.002;4.686;2024-03-02T14:41:11;3.28;;;1.05;;
59336;SDS011;45115;52.002;4.686;2024-03-02T14:43:39;1.77;;;1.10;;
59336;SDS011;45115;52.002;4.686;2024-03-02T14:46:06;4.32;;;1.30;;
59336;SDS011;45115;52.002;4.686;2024-03-02T14:48:34;2.58;;;1.40;;
59336;SDS011;45115;52.002;4.686;2024-03-02T14:51:02;2.03;;;1.50;;
59336;SDS011;45115;52.002;4.686;2024-03-02T14:53:29;5.95;;;1.50;;
59336;SDS011;45115;52.002;4.686;2024-03-02T14:55:56;3.28;;;1.45;;
59336;SDS011;45115;52.002;4.686;2024-03-02T14:58:23;4.63;;;1.52;;